createdAt,value
2018-04-28T00:00:32.502Z,5.98
2018-04-28T00:01:33.023Z,5.96
2018-04-28T00:02:33.443Z,5.95
2018-04-28T00:03:33.914Z,5.95
2018-04-28T00:04:34.387Z,5.94
2018-04-28T00:05:34.857Z,5.94
2018-04-28T00:06:35.381Z,5.92
2018-04-28T00:07:35.801Z,5.92
2018-04-28T00:08:36.278Z,5.90
2018-04-28T00:09:37.117Z,5.90
2018-04-28T00:10:37.218Z,5.89
2018-04-28T00:11:37.689Z,5.88
2018-04-28T00:12:38.166Z,5.86
2018-04-28T00:13:38.633Z,5.86
2018-04-28T00:14:39.108Z,5.86
2018-04-28T00:15:39.583Z,5.84
2018-04-28T00:16:40.054Z,5.84
2018-04-28T00:17:40.526Z,5.82
2018-04-28T00:18:41.001Z,5.81
2018-04-28T00:19:41.475Z,5.80
2018-04-28T00:20:41.950Z,5.80
2018-04-28T00:21:42.423Z,5.80
2018-04-28T00:22:42.895Z,5.78
2018-04-28T00:23:43.366Z,5.76
2018-04-28T00:24:43.841Z,5.77
2018-04-28T00:25:44.317Z,5.75
2018-04-28T00:26:44.789Z,5.76
2018-04-28T00:27:45.263Z,5.74
2018-04-28T00:28:45.738Z,5.73
2018-04-28T00:29:46.212Z,5.72
2018-04-28T00:30:46.686Z,5.72
2018-04-28T00:31:47.162Z,5.69
2018-04-28T00:32:47.640Z,5.68
2018-04-28T00:33:48.107Z,5.66
2018-04-28T00:34:48.581Z,5.65
2018-04-28T00:35:49.058Z,5.65
2018-04-28T00:36:49.531Z,5.64
2018-04-28T00:37:50.005Z,5.62
2018-04-28T00:38:50.481Z,5.62
2018-04-28T00:39:50.953Z,5.59
2018-04-28T00:40:51.430Z,5.60
2018-04-28T00:41:51.951Z,5.58
2018-04-28T00:42:52.375Z,5.57
2018-04-28T00:43:52.848Z,5.56
2018-04-28T00:44:53.323Z,5.53
2018-04-28T00:45:53.797Z,5.52
2018-04-28T00:46:54.269Z,5.50
2018-04-28T00:47:54.742Z,5.48
2018-04-28T00:48:55.218Z,5.48
2018-04-28T00:49:55.687Z,5.48
2018-04-28T00:50:56.160Z,5.46
2018-04-28T00:51:56.631Z,5.43
2018-04-28T00:52:57.103Z,5.42
2018-04-28T00:53:57.573Z,5.40
2018-04-28T00:54:58.048Z,5.39
2018-04-28T00:55:58.518Z,5.38
2018-04-28T00:56:58.993Z,5.38
2018-04-28T00:57:59.460Z,5.36
2018-04-28T00:58:59.930Z,5.35
2018-04-28T01:00:00.404Z,5.32
2018-04-28T01:01:00.872Z,5.33
2018-04-28T01:02:01.342Z,5.30
2018-04-28T01:03:01.817Z,5.30
2018-04-28T01:04:02.287Z,5.28
2018-04-28T01:05:02.755Z,5.26
2018-04-28T01:06:03.224Z,5.26
2018-04-28T01:07:03.695Z,5.24
2018-04-28T01:08:04.168Z,5.24
2018-04-28T01:09:04.635Z,5.24
2018-04-28T01:10:05.108Z,5.22
2018-04-28T01:11:05.576Z,5.21
2018-04-28T01:12:06.050Z,5.20
2018-04-28T01:13:06.517Z,5.20
2018-04-28T01:14:06.987Z,5.18
2018-04-28T01:15:07.459Z,5.18
2018-04-28T01:16:07.929Z,5.16
2018-04-28T01:17:08.451Z,5.16
2018-04-28T01:18:08.873Z,5.15
2018-04-28T01:19:09.343Z,5.14
2018-04-28T01:20:09.817Z,5.14
2018-04-28T01:21:10.285Z,5.14
2018-04-28T01:22:10.755Z,5.14
2018-04-28T01:23:11.227Z,5.14
2018-04-28T01:24:11.703Z,5.12
2018-04-28T01:25:12.173Z,5.12
2018-04-28T01:26:12.641Z,5.11
2018-04-28T01:27:13.115Z,5.11
2018-04-28T01:28:13.590Z,5.10
2018-04-28T01:29:14.059Z,5.09
2018-04-28T01:30:14.531Z,5.09
2018-04-28T01:31:15.001Z,5.08
2018-04-28T01:32:15.476Z,5.06
2018-04-28T01:33:15.949Z,5.04
2018-04-28T01:34:16.422Z,5.06
2018-04-28T01:35:16.892Z,5.04
2018-04-28T01:36:17.366Z,5.04
2018-04-28T01:37:17.839Z,5.02
2018-04-28T01:38:18.312Z,5.02
2018-04-28T01:39:18.785Z,5.00
2018-04-28T01:40:19.259Z,5.00
2018-04-28T01:41:19.731Z,5.00
2018-04-28T01:42:20.205Z,4.99
2018-04-28T01:43:20.677Z,4.98
2018-04-28T01:44:21.151Z,4.97
2018-04-28T01:45:21.628Z,4.96
2018-04-28T01:46:22.101Z,4.94
2018-04-28T01:47:22.622Z,4.94
2018-04-28T01:48:23.046Z,4.92
2018-04-28T01:49:23.520Z,4.91
2018-04-28T01:50:23.996Z,4.91
2018-04-28T01:51:24.466Z,4.90
2018-04-28T01:52:24.941Z,4.90
2018-04-28T01:53:25.418Z,4.88
2018-04-28T01:54:25.889Z,4.88
2018-04-28T01:55:26.364Z,4.87
2018-04-28T01:56:26.838Z,4.86
2018-04-28T01:57:27.312Z,4.84
2018-04-28T01:58:27.786Z,4.84
2018-04-28T01:59:28.262Z,4.84
2018-04-28T02:00:28.738Z,4.82
2018-04-28T02:01:29.214Z,4.81
2018-04-28T02:02:29.684Z,4.80
2018-04-28T02:03:30.163Z,4.80
2018-04-28T02:04:30.632Z,4.78
2018-04-28T02:05:31.107Z,4.78
2018-04-28T02:06:31.580Z,4.78
2018-04-28T02:07:32.105Z,4.78
2018-04-28T02:08:32.528Z,4.76
2018-04-28T02:09:33.001Z,4.76
2018-04-28T02:10:33.475Z,4.74
2018-04-28T02:11:33.947Z,4.74
2018-04-28T02:12:34.421Z,4.73
2018-04-28T02:13:34.897Z,4.72
2018-04-28T02:14:35.364Z,4.72
2018-04-28T02:15:35.839Z,4.72
2018-04-28T02:16:36.310Z,4.70
2018-04-28T02:17:36.781Z,4.69
2018-04-28T02:18:37.253Z,4.70
2018-04-28T02:19:37.727Z,4.68
2018-04-28T02:20:38.197Z,4.69
2018-04-28T02:21:38.668Z,4.66
2018-04-28T02:22:39.138Z,4.65
2018-04-28T02:23:39.608Z,4.66
2018-04-28T02:24:40.079Z,4.64
2018-04-28T02:25:40.550Z,4.64
2018-04-28T02:26:41.020Z,4.63
2018-04-28T02:27:41.493Z,4.62
2018-04-28T02:28:41.967Z,4.61
2018-04-28T02:29:42.432Z,4.62
2018-04-28T02:30:42.903Z,4.60
2018-04-28T02:31:43.372Z,4.60
2018-04-28T02:32:43.842Z,4.57
2018-04-28T02:33:44.313Z,4.57
2018-04-28T02:34:44.784Z,4.58
2018-04-28T02:35:45.255Z,4.55
2018-04-28T02:36:45.730Z,4.54
2018-04-28T02:37:46.195Z,4.54
2018-04-28T02:38:46.664Z,4.53
2018-04-28T02:39:47.138Z,4.52
2018-04-28T02:40:47.607Z,4.52
2018-04-28T02:41:48.078Z,4.49
2018-04-28T02:42:48.555Z,4.51
2018-04-28T02:43:49.019Z,4.48
2018-04-28T02:44:49.491Z,4.48
2018-04-28T02:45:49.962Z,4.47
2018-04-28T02:46:50.469Z,4.46
2018-04-28T02:47:50.905Z,4.45
2018-04-28T02:48:51.375Z,4.44
2018-04-28T02:49:51.848Z,4.42
2018-04-28T02:50:52.318Z,4.42
2018-04-28T02:51:52.794Z,4.41
2018-04-28T02:52:53.260Z,4.39
2018-04-28T02:53:53.735Z,4.41
2018-04-28T02:54:54.207Z,4.38
2018-04-28T02:55:54.677Z,4.37
2018-04-28T02:56:55.158Z,4.36
2018-04-28T02:57:55.677Z,4.36
2018-04-28T02:58:56.092Z,4.34
2018-04-28T02:59:56.567Z,4.33
2018-04-28T03:00:57.040Z,4.33
2018-04-28T03:01:57.513Z,4.32
2018-04-28T03:02:57.986Z,4.29
2018-04-28T03:03:58.457Z,4.28
2018-04-28T03:04:58.931Z,4.28
2018-04-28T03:05:59.404Z,4.26
2018-04-28T03:06:59.875Z,4.26
2018-04-28T03:08:00.399Z,4.25
2018-04-28T03:09:00.821Z,4.24
2018-04-28T03:10:01.359Z,4.23
2018-04-28T03:11:01.774Z,4.24
2018-04-28T03:12:02.240Z,4.22
2018-04-28T03:13:02.715Z,4.20
2018-04-28T03:14:03.189Z,4.20
2018-04-28T03:15:03.662Z,4.19
2018-04-28T03:16:04.135Z,4.17
2018-04-28T03:17:04.609Z,4.17
2018-04-28T03:18:05.134Z,4.18
2018-04-28T03:19:05.556Z,4.16
2018-04-28T03:20:06.032Z,4.14
2018-04-28T03:21:06.506Z,4.14
2018-04-28T03:22:06.978Z,4.13
2018-04-28T03:23:07.796Z,4.11
2018-04-28T03:24:07.925Z,4.10
2018-04-28T03:25:08.401Z,4.11
2018-04-28T03:26:08.875Z,4.08
2018-04-28T03:27:09.350Z,4.10
2018-04-28T03:28:09.824Z,4.08
2018-04-28T03:29:10.298Z,4.06
2018-04-28T03:30:10.772Z,4.07
2018-04-28T03:31:11.244Z,4.06
2018-04-28T03:32:11.720Z,4.06
2018-04-28T03:33:12.198Z,4.05
2018-04-28T03:34:12.670Z,4.04
2018-04-28T03:35:13.146Z,4.04
2018-04-28T03:36:13.618Z,4.02
2018-04-28T03:37:14.092Z,4.03
2018-04-28T03:38:14.569Z,4.02
2018-04-28T03:39:15.039Z,4.02
2018-04-28T03:40:15.513Z,4.00
2018-04-28T03:41:15.988Z,4.01
2018-04-28T03:42:16.462Z,3.99
2018-04-28T03:43:16.934Z,3.99
2018-04-28T03:44:17.404Z,3.98
2018-04-28T03:45:17.878Z,3.98
2018-04-28T03:46:18.351Z,3.97
2018-04-28T03:47:18.823Z,3.96
2018-04-28T03:48:19.297Z,3.96
2018-04-28T03:49:19.769Z,3.94
2018-04-28T03:50:20.241Z,3.94
2018-04-28T03:51:20.711Z,3.96
2018-04-28T03:52:21.188Z,3.96
2018-04-28T03:53:21.704Z,3.92
2018-04-28T03:54:22.127Z,3.92
2018-04-28T03:55:22.595Z,3.92
2018-04-28T03:56:23.066Z,3.90
2018-04-28T03:57:23.609Z,3.90
2018-04-28T03:58:24.007Z,3.89
2018-04-28T03:59:24.481Z,3.88
2018-04-28T04:00:24.949Z,3.86
2018-04-28T04:01:25.420Z,3.87
2018-04-28T04:02:25.891Z,3.84
2018-04-28T04:03:26.361Z,3.84
2018-04-28T04:04:26.831Z,3.84
2018-04-28T04:05:27.302Z,3.84
2018-04-28T04:06:27.772Z,3.82
2018-04-28T04:07:28.244Z,3.82
2018-04-28T04:08:28.711Z,3.81
2018-04-28T04:09:29.186Z,3.80
2018-04-28T04:10:29.653Z,3.78
2018-04-28T04:11:30.123Z,3.78
2018-04-28T04:12:30.596Z,3.79
2018-04-28T04:13:31.114Z,3.75
2018-04-28T04:14:31.536Z,3.76
2018-04-28T04:15:32.004Z,3.76
2018-04-28T04:16:32.476Z,3.76
2018-04-28T04:17:32.952Z,3.76
2018-04-28T04:18:33.417Z,3.76
2018-04-28T04:19:33.888Z,3.74
2018-04-28T04:20:34.360Z,3.74
2018-04-28T04:21:34.832Z,3.73
2018-04-28T04:22:35.304Z,3.73
2018-04-28T04:23:35.774Z,3.73
2018-04-28T04:24:36.245Z,3.73
2018-04-28T04:25:36.715Z,3.73
2018-04-28T04:26:37.217Z,3.72
2018-04-28T04:27:37.659Z,3.72
2018-04-28T04:28:38.132Z,3.72
2018-04-28T04:29:38.602Z,3.71
2018-04-28T04:30:39.076Z,3.72
2018-04-28T04:31:39.547Z,3.72
2018-04-28T04:32:40.020Z,3.72
2018-04-28T04:33:40.546Z,3.71
2018-04-28T04:34:40.967Z,3.71
2018-04-28T04:35:41.436Z,3.72
2018-04-28T04:36:41.910Z,3.71
2018-04-28T04:37:42.417Z,3.76
2018-04-28T04:38:42.854Z,3.73
2018-04-28T04:39:43.327Z,3.72
2018-04-28T04:40:43.799Z,3.74
2018-04-28T04:41:44.273Z,3.76
2018-04-28T04:42:44.748Z,3.76
2018-04-28T04:43:45.220Z,3.77
2018-04-28T04:44:45.693Z,3.77
2018-04-28T04:45:46.165Z,3.81
2018-04-28T04:46:46.640Z,3.81
2018-04-28T04:47:47.112Z,3.84
2018-04-28T04:48:47.585Z,3.86
2018-04-28T04:49:48.060Z,3.86
2018-04-28T04:50:48.537Z,3.89
2018-04-28T04:51:49.016Z,3.90
2018-04-28T04:52:49.481Z,3.92
2018-04-28T04:53:49.954Z,3.93
2018-04-28T04:54:50.429Z,3.96
2018-04-28T04:55:50.903Z,3.98
2018-04-28T04:56:51.379Z,4.01
2018-04-28T04:57:51.855Z,4.04
2018-04-28T04:58:52.329Z,4.04
2018-04-28T04:59:52.801Z,4.09
2018-04-28T05:00:53.276Z,4.14
2018-04-28T05:01:53.751Z,4.16
2018-04-28T05:02:54.224Z,4.18
2018-04-28T05:03:54.699Z,4.22
2018-04-28T05:04:55.174Z,4.26
2018-04-28T05:05:55.651Z,4.28
2018-04-28T05:06:56.127Z,4.32
2018-04-28T05:07:56.598Z,4.36
2018-04-28T05:08:57.074Z,4.38
2018-04-28T05:09:57.550Z,4.44
2018-04-28T05:10:58.023Z,4.48
2018-04-28T05:11:58.568Z,4.52
2018-04-28T05:12:58.972Z,4.55
2018-04-28T05:13:59.446Z,4.60
2018-04-28T05:14:59.920Z,4.64
2018-04-28T05:16:00.395Z,4.68
2018-04-28T05:17:00.874Z,4.74
2018-04-28T05:18:01.341Z,4.78
2018-04-28T05:19:01.916Z,4.82
2018-04-28T05:20:02.286Z,4.86
2018-04-28T05:21:02.759Z,4.92
2018-04-28T05:22:03.233Z,4.97
2018-04-28T05:23:03.705Z,5.00
2018-04-28T05:24:04.177Z,5.08
2018-04-28T05:25:04.650Z,5.12
2018-04-28T05:26:05.120Z,5.16
2018-04-28T05:27:05.602Z,5.23
2018-04-28T05:28:06.066Z,5.28
2018-04-28T05:29:06.536Z,5.32
2018-04-28T05:30:07.008Z,5.38
2018-04-28T05:31:07.481Z,5.43
2018-04-28T05:32:07.950Z,5.49
2018-04-28T05:33:08.421Z,5.54
2018-04-28T05:34:08.894Z,5.60
2018-04-28T05:35:09.363Z,5.66
2018-04-28T05:36:09.835Z,5.70
2018-04-28T05:37:10.308Z,5.76
2018-04-28T05:38:10.778Z,5.82
2018-04-28T05:39:11.250Z,5.88
2018-04-28T05:40:11.721Z,5.94
2018-04-28T05:41:12.194Z,6.00
2018-04-28T05:42:12.663Z,6.06
2018-04-28T05:43:13.136Z,6.10
2018-04-28T05:44:13.605Z,6.16
2018-04-28T05:45:14.078Z,6.23
2018-04-28T05:46:14.551Z,6.28
2018-04-28T05:47:15.023Z,6.33
2018-04-28T05:48:15.496Z,6.38
2018-04-28T05:49:16.016Z,6.44
2018-04-28T05:50:16.640Z,6.50
2018-04-28T05:51:16.914Z,6.54
2018-04-28T05:52:17.382Z,6.61
2018-04-28T05:53:17.867Z,6.68
2018-04-28T05:54:18.329Z,6.72
2018-04-28T05:55:18.805Z,6.78
2018-04-28T05:56:19.274Z,6.83
2018-04-28T05:57:19.746Z,6.91
2018-04-28T05:58:20.561Z,6.96
2018-04-28T05:59:20.695Z,7.02
2018-04-28T06:00:21.167Z,7.06
2018-04-28T06:01:21.643Z,7.13
2018-04-28T06:02:22.117Z,7.18
2018-04-28T06:03:22.612Z,7.23
2018-04-28T06:04:23.065Z,7.30
2018-04-28T06:05:23.540Z,7.34
2018-04-28T06:06:24.015Z,7.40
2018-04-28T06:07:24.491Z,7.46
2018-04-28T06:08:24.966Z,7.52
2018-04-28T06:09:25.439Z,7.57
2018-04-28T06:10:25.913Z,7.62
2018-04-28T06:11:26.389Z,7.68
2018-04-28T06:12:26.864Z,7.74
2018-04-28T06:13:27.345Z,7.80
2018-04-28T06:14:27.817Z,7.86
2018-04-28T06:15:28.292Z,7.92
2018-04-28T06:16:28.768Z,7.98
2018-04-28T06:17:29.243Z,8.02
2018-04-28T06:18:29.718Z,8.09
2018-04-28T06:19:30.193Z,8.17
2018-04-28T06:20:30.669Z,8.21
2018-04-28T06:21:31.145Z,8.26
2018-04-28T06:22:31.618Z,8.33
2018-04-28T06:23:32.094Z,8.40
2018-04-28T06:24:32.569Z,8.44
2018-04-28T06:25:33.045Z,8.50
2018-04-28T06:26:33.518Z,8.58
2018-04-28T06:27:33.994Z,8.62
2018-04-28T06:28:34.466Z,8.68
2018-04-28T06:29:34.941Z,8.74
2018-04-28T06:30:35.417Z,8.79
2018-04-28T06:31:35.889Z,8.85
2018-04-28T06:32:36.361Z,8.90
2018-04-28T06:33:36.838Z,8.98
2018-04-28T06:34:37.310Z,9.02
2018-04-28T06:35:37.786Z,9.08
2018-04-28T06:36:38.255Z,9.13
2018-04-28T06:37:38.731Z,9.18
2018-04-28T06:38:39.201Z,9.24
2018-04-28T06:39:39.725Z,9.29
2018-04-28T06:40:40.146Z,9.34
2018-04-28T06:41:40.625Z,9.40
2018-04-28T06:42:41.090Z,9.45
2018-04-28T06:43:41.562Z,9.50
2018-04-28T06:44:42.035Z,9.56
2018-04-28T06:45:42.507Z,9.61
2018-04-28T06:46:42.981Z,9.66
2018-04-28T06:47:43.449Z,9.71
2018-04-28T06:48:43.922Z,9.76
2018-04-28T06:49:44.394Z,9.82
2018-04-28T06:50:44.866Z,9.88
2018-04-28T06:51:45.337Z,9.92
2018-04-28T06:52:45.809Z,9.98
2018-04-28T06:53:46.282Z,10.04
2018-04-28T06:54:46.806Z,10.08
2018-04-28T06:55:47.227Z,10.14
2018-04-28T06:56:47.696Z,10.19
2018-04-28T06:57:48.172Z,10.24
2018-04-28T06:58:48.643Z,10.28
2018-04-28T06:59:49.166Z,10.32
2018-04-28T07:00:49.589Z,10.38
2018-04-28T07:01:50.069Z,10.42
2018-04-28T07:02:50.537Z,10.47
2018-04-28T07:03:51.010Z,10.52
2018-04-28T07:04:51.533Z,10.56
2018-04-28T07:05:51.955Z,10.61
2018-04-28T07:06:52.491Z,10.67
2018-04-28T07:07:52.902Z,10.72
2018-04-28T07:08:53.377Z,10.76
2018-04-28T07:09:53.852Z,10.81
2018-04-28T07:10:54.357Z,10.86
2018-04-28T07:11:54.801Z,10.92
2018-04-28T07:12:55.276Z,10.96
2018-04-28T07:13:55.749Z,11.00
2018-04-28T07:14:56.226Z,11.05
2018-04-28T07:15:56.700Z,11.10
2018-04-28T07:16:57.176Z,11.15
2018-04-28T07:17:57.652Z,11.20
2018-04-28T07:18:58.127Z,11.25
2018-04-28T07:19:58.606Z,11.30
2018-04-28T07:20:59.086Z,11.34
2018-04-28T07:21:59.557Z,11.40
2018-04-28T07:23:00.033Z,11.45
2018-04-28T07:24:00.512Z,11.48
2018-04-28T07:25:00.985Z,11.54
2018-04-28T07:26:01.465Z,11.59
2018-04-28T07:27:01.942Z,11.63
2018-04-28T07:28:02.416Z,11.68
2018-04-28T07:29:02.888Z,11.72
2018-04-28T07:30:03.364Z,11.78
2018-04-28T07:31:03.842Z,11.81
2018-04-28T07:32:04.318Z,11.86
2018-04-28T07:33:04.791Z,11.91
2018-04-28T07:34:05.268Z,11.96
2018-04-28T07:35:05.794Z,11.99
2018-04-28T07:36:06.219Z,12.04
2018-04-28T07:37:06.694Z,12.08
2018-04-28T07:38:07.175Z,12.14
2018-04-28T07:39:07.648Z,12.19
2018-04-28T07:40:08.119Z,12.22
2018-04-28T07:41:08.593Z,12.28
2018-04-28T07:42:09.067Z,12.31
2018-04-28T07:43:09.542Z,12.36
2018-04-28T07:44:10.016Z,12.40
2018-04-28T07:45:10.540Z,12.43
2018-04-28T07:46:10.964Z,12.48
2018-04-28T07:47:11.438Z,12.52
2018-04-28T07:48:11.910Z,12.55
2018-04-28T07:49:12.384Z,12.59
2018-04-28T07:50:12.859Z,12.64
2018-04-28T07:51:13.332Z,12.68
2018-04-28T07:52:13.808Z,12.72
2018-04-28T07:53:14.279Z,12.76
2018-04-28T07:54:14.750Z,12.81
2018-04-28T07:55:15.277Z,12.86
2018-04-28T07:56:15.697Z,12.89
2018-04-28T07:57:16.168Z,12.94
2018-04-28T07:58:16.641Z,12.99
2018-04-28T07:59:17.114Z,13.04
2018-04-28T08:00:17.642Z,13.06
2018-04-28T08:01:18.055Z,13.11
2018-04-28T08:02:18.529Z,13.16
2018-04-28T08:03:19.001Z,13.20
2018-04-28T08:04:19.475Z,13.25
2018-04-28T08:05:19.945Z,13.31
2018-04-28T08:06:20.418Z,13.36
2018-04-28T08:07:20.892Z,13.39
2018-04-28T08:08:21.363Z,13.46
2018-04-28T08:09:21.837Z,13.52
2018-04-28T08:10:22.310Z,13.58
2018-04-28T08:11:22.782Z,13.64
2018-04-28T08:12:23.257Z,13.70
2018-04-28T08:13:23.728Z,13.76
2018-04-28T08:14:24.201Z,13.81
2018-04-28T08:15:24.725Z,13.90
2018-04-28T08:16:25.150Z,13.93
2018-04-28T08:17:25.622Z,14.02
2018-04-28T08:18:26.097Z,14.10
2018-04-28T08:19:26.577Z,14.16
2018-04-28T08:20:27.045Z,14.24
2018-04-28T08:21:27.523Z,14.32
2018-04-28T08:22:27.995Z,14.38
2018-04-28T08:23:28.471Z,14.47
2018-04-28T08:24:28.946Z,14.55
2018-04-28T08:25:29.420Z,14.62
2018-04-28T08:26:29.973Z,14.71
2018-04-28T08:27:30.373Z,14.78
2018-04-28T08:28:30.851Z,14.88
2018-04-28T08:29:31.326Z,14.96
2018-04-28T08:30:31.802Z,15.05
2018-04-28T08:31:32.282Z,15.14
2018-04-28T08:32:32.757Z,15.23
2018-04-28T08:33:33.231Z,15.32
2018-04-28T08:34:33.708Z,15.39
2018-04-28T08:35:34.236Z,15.50
2018-04-28T08:36:34.662Z,15.57
2018-04-28T08:37:35.143Z,15.66
2018-04-28T08:38:35.616Z,15.74
2018-04-28T08:39:36.090Z,15.84
2018-04-28T08:40:36.569Z,15.93
2018-04-28T08:41:37.044Z,16.02
2018-04-28T08:42:37.521Z,16.09
2018-04-28T08:43:38.000Z,16.18
2018-04-28T08:44:38.506Z,16.26
2018-04-28T08:45:39.013Z,16.35
2018-04-28T08:46:39.424Z,16.43
2018-04-28T08:47:39.902Z,16.51
2018-04-28T08:48:40.388Z,16.59
2018-04-28T08:49:40.853Z,16.66
2018-04-28T08:50:41.329Z,16.74
2018-04-28T08:51:41.803Z,16.82
2018-04-28T08:52:42.281Z,16.90
2018-04-28T08:53:42.754Z,16.99
2018-04-28T08:54:43.230Z,17.05
2018-04-28T08:55:43.704Z,17.14
2018-04-28T08:56:44.227Z,17.21
2018-04-28T08:57:44.657Z,17.29
2018-04-28T08:58:45.129Z,17.36
2018-04-28T08:59:45.609Z,17.43
2018-04-28T09:00:46.079Z,17.51
2018-04-28T09:01:46.553Z,17.59
2018-04-28T09:02:47.030Z,17.65
2018-04-28T09:03:47.589Z,17.73
2018-04-28T09:04:47.978Z,17.78
2018-04-28T09:05:48.450Z,17.86
2018-04-28T09:06:48.926Z,17.92
2018-04-28T09:07:49.398Z,17.99
2018-04-28T09:08:49.870Z,18.06
2018-04-28T09:09:50.345Z,18.13
2018-04-28T09:10:50.870Z,18.18
2018-04-28T09:11:51.293Z,18.26
2018-04-28T09:12:51.765Z,18.30
2018-04-28T09:13:52.237Z,18.36
2018-04-28T09:14:52.712Z,18.42
2018-04-28T09:15:53.184Z,18.47
2018-04-28T09:16:53.657Z,18.52
2018-04-28T09:17:54.131Z,18.56
2018-04-28T09:18:54.603Z,18.62
2018-04-28T09:19:55.076Z,18.68
2018-04-28T09:20:55.550Z,18.74
2018-04-28T09:21:56.020Z,18.78
2018-04-28T09:22:56.495Z,18.82
2018-04-28T09:23:56.967Z,18.84
2018-04-28T09:24:57.440Z,18.90
2018-04-28T09:25:57.961Z,18.93
2018-04-28T09:26:58.386Z,18.96
2018-04-28T09:27:58.857Z,19.00
2018-04-28T09:28:59.334Z,19.03
2018-04-28T09:29:59.803Z,19.07
2018-04-28T09:31:00.279Z,19.08
2018-04-28T09:32:00.749Z,19.11
2018-04-28T09:33:01.315Z,19.11
2018-04-28T09:34:01.695Z,19.15
2018-04-28T09:35:02.175Z,19.15
2018-04-28T09:36:02.696Z,19.16
2018-04-28T09:37:03.121Z,19.20
2018-04-28T09:38:03.592Z,19.21
2018-04-28T09:39:04.068Z,19.23
2018-04-28T09:40:04.613Z,19.25
2018-04-28T09:41:05.018Z,19.28
2018-04-28T09:42:05.496Z,19.28
2018-04-28T09:43:05.968Z,19.30
2018-04-28T09:44:06.443Z,19.32
2018-04-28T09:45:06.919Z,19.31
2018-04-28T09:46:07.445Z,19.32
2018-04-28T09:47:07.873Z,19.30
2018-04-28T09:48:08.349Z,19.30
2018-04-28T09:49:08.828Z,19.28
2018-04-28T09:50:09.302Z,19.30
2018-04-28T09:51:09.780Z,19.28
2018-04-28T09:52:10.257Z,19.28
2018-04-28T09:53:10.734Z,19.27
2018-04-28T09:54:11.212Z,19.26
2018-04-28T09:55:11.686Z,19.25
2018-04-28T09:56:12.216Z,19.24
2018-04-28T09:57:12.643Z,19.24
2018-04-28T09:58:13.120Z,19.24
2018-04-28T09:59:13.597Z,19.22
2018-04-28T10:00:14.073Z,19.21
2018-04-28T10:01:14.552Z,19.18
2018-04-28T10:02:15.027Z,19.17
2018-04-28T10:03:15.506Z,19.16
2018-04-28T10:04:15.982Z,19.12
2018-04-28T10:05:16.460Z,19.10
2018-04-28T10:06:16.985Z,19.06
2018-04-28T10:07:17.412Z,19.04
2018-04-28T10:08:17.888Z,19.02
2018-04-28T10:09:18.366Z,18.96
2018-04-28T10:10:18.841Z,18.93
2018-04-28T10:11:19.320Z,18.90
2018-04-28T10:12:19.792Z,18.86
2018-04-28T10:13:20.270Z,18.83
2018-04-28T10:14:20.746Z,18.77
2018-04-28T10:15:21.221Z,18.74
2018-04-28T10:16:21.697Z,18.69
2018-04-28T10:17:22.174Z,18.66
2018-04-28T10:18:22.648Z,18.60
2018-04-28T10:19:23.126Z,18.56
2018-04-28T10:20:23.630Z,18.52
2018-04-28T10:21:24.075Z,18.46
2018-04-28T10:23:25.025Z,18.37
2018-04-28T10:24:25.499Z,18.33
2018-04-28T10:25:25.974Z,18.28
2018-04-28T10:26:26.449Z,18.23
2018-04-28T10:27:26.923Z,18.20
2018-04-28T10:28:27.400Z,18.15
2018-04-28T10:29:27.873Z,18.11
2018-04-28T10:30:28.346Z,18.06
2018-04-28T10:31:28.820Z,18.01
2018-04-28T10:32:29.293Z,17.96
2018-04-28T10:33:29.768Z,17.90
2018-04-28T10:34:30.241Z,17.87
2018-04-28T10:35:30.715Z,17.83
2018-04-28T10:36:31.190Z,17.80
2018-04-28T10:37:31.666Z,17.74
2018-04-28T10:38:32.138Z,17.70
2018-04-28T10:39:32.616Z,17.66
2018-04-28T10:40:33.084Z,17.64
2018-04-28T10:41:33.558Z,17.60
2018-04-28T10:42:34.031Z,17.58
2018-04-28T10:43:34.504Z,17.54
2018-04-28T10:44:34.990Z,17.51
2018-04-28T10:45:35.451Z,17.48
2018-04-28T10:46:35.924Z,17.46
2018-04-28T10:47:36.468Z,17.44
2018-04-28T10:48:36.869Z,17.42
2018-04-28T10:49:37.342Z,17.40
2018-04-28T10:50:37.815Z,17.36
2018-04-28T10:51:38.289Z,17.33
2018-04-28T10:52:38.759Z,17.32
2018-04-28T10:53:39.286Z,17.29
2018-04-28T10:54:39.708Z,17.28
2018-04-28T10:55:40.178Z,17.24
2018-04-28T10:56:40.650Z,17.23
2018-04-28T10:57:41.125Z,17.21
2018-04-28T10:58:41.595Z,17.19
2018-04-28T10:59:42.067Z,17.17
2018-04-28T11:00:42.541Z,17.16
2018-04-28T11:01:43.016Z,17.16
2018-04-28T11:02:43.484Z,17.13
2018-04-28T11:03:43.958Z,17.12
2018-04-28T11:04:44.439Z,17.13
2018-04-28T11:05:44.903Z,17.09
2018-04-28T11:06:45.378Z,17.08
2018-04-28T11:07:45.852Z,17.07
2018-04-28T11:08:46.324Z,17.07
2018-04-28T11:09:46.799Z,17.05
2018-04-28T11:10:47.271Z,17.04
2018-04-28T11:11:47.798Z,17.04
2018-04-28T11:12:48.220Z,17.04
2018-04-28T11:13:48.697Z,17.03
2018-04-28T11:14:49.172Z,17.01
2018-04-28T11:15:49.647Z,17.03
2018-04-28T11:16:50.121Z,17.02
2018-04-28T11:17:50.597Z,17.02
2018-04-28T11:18:51.075Z,17.02
2018-04-28T11:19:51.607Z,17.03
2018-04-28T11:20:52.026Z,17.02
2018-04-28T11:21:52.504Z,17.01
2018-04-28T11:22:52.980Z,17.01
2018-04-28T11:23:53.457Z,17.02
2018-04-28T11:24:53.934Z,17.02
2018-04-28T11:25:54.444Z,17.01
2018-04-28T11:26:54.886Z,17.02
2018-04-28T11:27:55.363Z,17.02
2018-04-28T11:28:55.842Z,17.02
2018-04-28T11:29:56.318Z,17.01
2018-04-28T11:30:56.793Z,17.00
2018-04-28T11:31:57.272Z,17.01
2018-04-28T11:32:57.756Z,17.00
2018-04-28T11:33:58.225Z,17.00
2018-04-28T11:34:58.701Z,17.02
2018-04-28T11:35:59.177Z,17.02
2018-04-28T11:36:59.656Z,17.02
2018-04-28T11:38:00.133Z,17.03
2018-04-28T11:39:00.609Z,17.02
2018-04-28T11:40:01.085Z,17.03
2018-04-28T11:41:01.562Z,17.03
2018-04-28T11:42:02.038Z,17.04
2018-04-28T11:43:02.513Z,17.03
2018-04-28T11:44:02.989Z,17.04
2018-04-28T11:45:03.468Z,17.06
2018-04-28T11:46:03.948Z,17.05
2018-04-28T11:47:04.416Z,17.07
2018-04-28T11:48:04.892Z,17.07
2018-04-28T11:49:05.369Z,17.06
2018-04-28T11:50:05.844Z,17.08
2018-04-28T11:51:06.322Z,17.08
2018-04-28T11:52:06.845Z,17.09
2018-04-28T11:53:07.272Z,17.08
2018-04-28T11:54:07.747Z,17.08
2018-04-28T11:55:08.220Z,17.08
2018-04-28T11:56:08.695Z,17.09
2018-04-28T11:57:09.168Z,17.10
2018-04-28T11:58:09.644Z,17.11
2018-04-28T11:59:10.129Z,17.11
2018-04-28T12:00:10.594Z,17.10
2018-04-28T12:01:11.067Z,17.13
2018-04-28T12:02:11.540Z,17.12
2018-04-28T12:03:12.017Z,17.13
2018-04-28T12:04:12.491Z,17.14
2018-04-28T12:05:13.039Z,17.14
2018-04-28T12:06:13.437Z,17.15
2018-04-28T12:07:13.914Z,17.15
2018-04-28T12:08:14.385Z,17.16
2018-04-28T12:09:14.859Z,17.16
2018-04-28T12:10:15.335Z,17.19
2018-04-28T12:11:15.805Z,17.18
2018-04-28T12:12:16.329Z,17.20
2018-04-28T12:13:16.753Z,17.20
2018-04-28T12:14:17.227Z,17.20
2018-04-28T12:15:17.699Z,17.20
2018-04-28T12:16:18.172Z,17.22
2018-04-28T12:17:18.646Z,17.23
2018-04-28T12:18:19.118Z,17.23
2018-04-28T12:19:19.593Z,17.23
2018-04-28T12:20:20.064Z,17.26
2018-04-28T12:21:20.538Z,17.26
2018-04-28T12:22:21.014Z,17.27
2018-04-28T12:23:21.492Z,17.28
2018-04-28T12:24:21.956Z,17.28
2018-04-28T12:25:22.433Z,17.29
2018-04-28T12:26:22.902Z,17.30
2018-04-28T12:27:23.424Z,17.31
2018-04-28T12:28:23.845Z,17.31
2018-04-28T12:29:24.319Z,17.32
2018-04-28T12:30:24.792Z,17.33
2018-04-28T12:31:25.263Z,17.33
2018-04-28T12:32:25.786Z,17.35
2018-04-28T12:33:26.208Z,17.36
2018-04-28T12:34:26.682Z,17.36
2018-04-28T12:35:27.155Z,17.36
2018-04-28T12:36:27.626Z,17.37
2018-04-28T12:37:28.099Z,17.37
2018-04-28T12:38:28.576Z,17.39
2018-04-28T12:39:29.046Z,17.40
2018-04-28T12:40:29.517Z,17.40
2018-04-28T12:41:29.990Z,17.42
2018-04-28T12:42:30.514Z,17.42
2018-04-28T12:43:30.941Z,17.44
2018-04-28T12:44:31.411Z,17.44
2018-04-28T12:45:31.888Z,17.46
2018-04-28T12:46:32.359Z,17.47
2018-04-28T12:47:32.884Z,17.48
2018-04-28T12:48:33.310Z,17.49
2018-04-28T12:49:33.782Z,17.50
2018-04-28T12:50:34.284Z,17.51
2018-04-28T12:51:34.734Z,17.52
2018-04-28T12:52:35.209Z,17.55
2018-04-28T12:53:35.685Z,17.54
2018-04-28T12:54:36.160Z,17.57
2018-04-28T12:55:36.674Z,17.58
2018-04-28T12:56:37.113Z,17.58
2018-04-28T12:57:37.648Z,17.60
2018-04-28T12:58:38.068Z,17.62
2018-04-28T12:59:38.543Z,17.63
2018-04-28T13:00:39.020Z,17.64
2018-04-28T13:01:39.844Z,17.66
2018-04-28T13:02:39.977Z,17.68
2018-04-28T13:03:40.451Z,17.68
2018-04-28T13:04:40.929Z,17.70
2018-04-28T13:05:41.406Z,17.72
2018-04-28T13:06:42.224Z,17.72
2018-04-28T13:07:42.362Z,17.72
2018-04-28T13:08:42.875Z,17.73
2018-04-28T13:09:43.315Z,17.74
2018-04-28T13:10:43.791Z,17.75
2018-04-28T13:11:44.266Z,17.76
2018-04-28T13:12:44.797Z,17.76